METAR & TAF

RJTY 222256Z AUTO 08004KT 8SM OVC012 15/12 A3021 RMK AO2 CIG 011 RWY18 SLP232 T01530124 FZRANO $
RJTY 222156Z COR 06005KT 6SM BR OVC011 15/13 A3020 RMK AO2 CIG 009 RWY18 SLP228 T01500127 FZRANO $ COR 2225
RJTY 222111Z AUTO 09007KT 7SM OVC010 15/13 A3019 RMK AO2 SLP224 FZRANO $
RJTY 222056Z AUTO 07005KT 6SM BR OVC009 15/13 A3018 RMK AO2 SLP221 T01500130 52021 FZRANO $
RJTY 222026Z AUTO 04006KT 5SM BR OVC008 15/13 A3017 RMK AO2 SLP217 FZRANO $
RJTY 221956Z AUTO 05005KT 5SM BR OVC007 15/14 A3016 RMK AO2 CIG 006 RWY18 SLP213 T01500135 FZRANO $
RJTY 221912Z AUTO 02006KT 5SM BR OVC007 15/13 A3015 RMK AO2 CIG 006 RWY18 SLP210 FZRANO $
RJTY 221857Z AUTO 01008KT 5SM BR BKN008 15/13 A3014 RMK AO2 CIG 006 RWY18 SLP206 T01450130 FZRANO $
RJTY 221850Z AUTO 01008KT 5SM BR BKN008 BKN220 14/13 A3014 RMK AO2 CIG 008V220 BKN008 V SCT CIG 006 RWY18 SLP206 FZRANO $
RJTY 221835Z AUTO 01008KT 6SM BR FEW008 FEW220 14/13 A3014 RMK AO2 SLP206 FZRANO $

TAF AMD RJTY 222134Z 2221/2403 09009KT 9999 OVC010 QNH3015INS
  BECMG 2300/2301 10006KT 9999 BKN020 BKN200 QNH3006INS
  BECMG 2309/2311 11009KT 9999 BKN009 BKN180 QNH2997INS
  TEMPO 2312/2318 6000 -RA BR TX20/2306Z TN12/2321Z